Sky Ever — DSQX9 — position and weather

sailwx.info

Track history (hours):
 
Tides and Currents Weather Stations Pressure Air Temp Water Temp Dewpoint Dewpoint Depression Visibility Wind Speed Wind Dir Waves Ship Positions

Sky Ever

Last reported at 2015-Jan-16 16:26 UTC. Time now 2015-Jan-27 14:24 UTC.
Position N 34°50' E 139°09'.
Warning: this ship's position is 10 days out of date.

Length 76 m; draft 3.6 m.

Type: Cargo ship. MMSI: 441751000.

Date/timePositionNaut miles runAvg speedWind from/ knotsBaromVisibWave heightAir tempDewpointWater temp
2015-Jan-16 16:26N 34°50' E 139°09'17 8.6
2015-Jan-16 14:25N 34°59' E 139°27'7 8.2
2015-Jan-16 13:33N 35°03' E 139°34'9 8.5
2015-Jan-16 12:33N 35°08' E 139°43'9 8.6
2015-Jan-16 11:33N 35°16' E 139°46'9 8.6
2015-Jan-16 10:33N 35°24' E 139°43'9 9.2
2015-Jan-16 09:33N 35°30' E 139°52'  
2015-Jan-12 00:29N 35°37' E 139°48'3 3.2
2015-Jan-11 23:27N 35°34' E 139°51'0 0.0
2015-Jan-11 22:18N 35°34' E 139°51'0 0.0
2015-Jan-11 21:33N 35°34' E 139°51'0 0.0
2015-Jan-11 20:33N 35°34' E 139°51'0 0.0
2015-Jan-11 19:33N 35°34' E 139°51'0 0.0
2015-Jan-11 18:32N 35°34' E 139°51'0 0.0
2015-Jan-11 17:33N 35°34' E 139°51'0 0.0
2015-Jan-11 16:20N 35°34' E 139°51'0 0.1
2015-Jan-11 15:30N 35°34' E 139°51'0 0.0
2015-Jan-11 14:33N 35°34' E 139°51'0 0.0
2015-Jan-11 13:31N 35°34' E 139°51'0 0.0
2015-Jan-11 12:24N 35°34' E 139°51'0 0.0
2015-Jan-11 11:20N 35°34' E 139°51'0 0.0
2015-Jan-11 10:31N 35°34' E 139°51'0 0.0
2015-Jan-11 09:31N 35°34' E 139°51'0 0.0
2015-Jan-11 06:31N 35°34' E 139°51'0 0.0
2015-Jan-11 05:31N 35°34' E 139°51'0 0.0
2015-Jan-11 01:31N 35°34' E 139°51'0 0.0
2015-Jan-11 00:31N 35°34' E 139°51'0 0.0
2015-Jan-10 22:30N 35°34' E 139°51'0 0.0
2015-Jan-10 21:30N 35°34' E 139°51'0 0.0
2015-Jan-10 19:24N 35°34' E 139°51'0 0.0
2015-Jan-10 18:24N 35°34' E 139°51'0 0.0
2015-Jan-10 17:30N 35°34' E 139°51'0 0.0
2015-Jan-10 16:33N 35°34' E 139°51'0 0.0
2015-Jan-10 15:30N 35°34' E 139°51'0 0.0
2015-Jan-10 14:33N 35°34' E 139°51'0 0.0
2015-Jan-10 13:33N 35°34' E 139°51'0 0.0
2015-Jan-10 09:30N 35°34' E 139°51'0 0.1
2015-Jan-10 08:24N 35°34' E 139°51'0 0.1
2015-Jan-10 07:33N 35°34' E 139°51'0 0.0
2015-Jan-10 06:33N 35°34' E 139°51'0 0.0
2015-Jan-10 05:33N 35°34' E 139°51'0 0.0
2015-Jan-10 04:33N 35°34' E 139°51'0 0.0
2015-Jan-10 03:24N 35°34' E 139°51'0 0.1
2015-Jan-10 02:30N 35°34' E 139°51'0 0.0
2015-Jan-10 01:27N 35°34' E 139°51'0 0.0
2015-Jan-10 00:30N 35°34' E 139°51'0 0.0
2015-Jan-09 23:24N 35°34' E 139°51'0 0.0
2015-Jan-09 21:30N 35°34' E 139°51'0 0.0
2015-Jan-09 20:27N 35°34' E 139°51'0 0.0
2015-Jan-09 19:30N 35°34' E 139°51'0 0.0
2015-Jan-09 18:30N 35°34' E 139°51'0 0.0
2015-Jan-09 17:33N 35°34' E 139°51'0 0.0
2015-Jan-09 16:30N 35°34' E 139°51'0 0.0
2015-Jan-09 15:27N 35°34' E 139°51'0 0.0
2015-Jan-09 14:27N 35°34' E 139°51'0 0.0
2015-Jan-09 13:30N 35°34' E 139°51'0 0.0
2015-Jan-09 12:30N 35°34' E 139°51'0 0.0
2015-Jan-09 11:30N 35°34' E 139°51'0 0.0
2015-Jan-09 10:30N 35°34' E 139°51'0 0.0
2015-Jan-09 09:15N 35°34' E 139°51'0 0.1
2015-Jan-09 08:33N 35°34' E 139°51'0 0.0
2015-Jan-09 06:12N 35°34' E 139°51'0 0.0
2015-Jan-09 05:16N 35°34' E 139°51'5 7.5
2015-Jan-09 04:33N 35°29' E 139°51'8 7.7
2015-Jan-09 03:33N 35°23' E 139°46'6 5.6
2015-Jan-09 02:33N 35°17' E 139°45'6 6.1
2015-Jan-09 01:33N 35°12' E 139°47'8 7.7
2015-Jan-09 00:33N 35°04' E 139°44'  
Track history (hours):
 
Tides and Currents Weather Stations Pressure Air Temp Water Temp Dewpoint Dewpoint Depression Visibility Wind Speed Wind Dir Waves Ship Positions

Sky Ever

Last reported at 2015-Jan-16 16:26 UTC. Time now 2015-Jan-27 14:24 UTC.
Position N 34°50' E 139°09'.
Warning: this ship's position is 10 days out of date.

Length 76 m; draft 3.6 m.

Type: Cargo ship. MMSI: 441751000.

Date/timePositionNaut miles runAvg speedWind from/ knotsBaromVisibWave heightAir tempDewpointWater temp
2015-Jan-16 16:26N 34°50' E 139°09'17 8.6
2015-Jan-16 14:25N 34°59' E 139°27'7 8.2
2015-Jan-16 13:33N 35°03' E 139°34'9 8.5
2015-Jan-16 12:33N 35°08' E 139°43'9 8.6
2015-Jan-16 11:33N 35°16' E 139°46'9 8.6
2015-Jan-16 10:33N 35°24' E 139°43'9 9.2
2015-Jan-16 09:33N 35°30' E 139°52'  
2015-Jan-12 00:29N 35°37' E 139°48'3 3.2
2015-Jan-11 23:27N 35°34' E 139°51'0 0.0
2015-Jan-11 22:18N 35°34' E 139°51'0 0.0
2015-Jan-11 21:33N 35°34' E 139°51'0 0.0
2015-Jan-11 20:33N 35°34' E 139°51'0 0.0
2015-Jan-11 19:33N 35°34' E 139°51'0 0.0
2015-Jan-11 18:32N 35°34' E 139°51'0 0.0
2015-Jan-11 17:33N 35°34' E 139°51'0 0.0
2015-Jan-11 16:20N 35°34' E 139°51'0 0.1
2015-Jan-11 15:30N 35°34' E 139°51'0 0.0
2015-Jan-11 14:33N 35°34' E 139°51'0 0.0
2015-Jan-11 13:31N 35°34' E 139°51'0 0.0
2015-Jan-11 12:24N 35°34' E 139°51'0 0.0
2015-Jan-11 11:20N 35°34' E 139°51'0 0.0
2015-Jan-11 10:31N 35°34' E 139°51'0 0.0
2015-Jan-11 09:31N 35°34' E 139°51'0 0.0
2015-Jan-11 06:31N 35°34' E 139°51'0 0.0
2015-Jan-11 05:31N 35°34' E 139°51'0 0.0
2015-Jan-11 01:31N 35°34' E 139°51'0 0.0
2015-Jan-11 00:31N 35°34' E 139°51'0 0.0
2015-Jan-10 22:30N 35°34' E 139°51'0 0.0
2015-Jan-10 21:30N 35°34' E 139°51'0 0.0
2015-Jan-10 19:24N 35°34' E 139°51'0 0.0
2015-Jan-10 18:24N 35°34' E 139°51'0 0.0
2015-Jan-10 17:30N 35°34' E 139°51'0 0.0
2015-Jan-10 16:33N 35°34' E 139°51'0 0.0
2015-Jan-10 15:30N 35°34' E 139°51'0 0.0
2015-Jan-10 14:33N 35°34' E 139°51'0 0.0
2015-Jan-10 13:33N 35°34' E 139°51'0 0.0
2015-Jan-10 09:30N 35°34' E 139°51'0 0.1
2015-Jan-10 08:24N 35°34' E 139°51'0 0.1
2015-Jan-10 07:33N 35°34' E 139°51'0 0.0
2015-Jan-10 06:33N 35°34' E 139°51'0 0.0
2015-Jan-10 05:33N 35°34' E 139°51'0 0.0
2015-Jan-10 04:33N 35°34' E 139°51'0 0.0
2015-Jan-10 03:24N 35°34' E 139°51'0 0.1
2015-Jan-10 02:30N 35°34' E 139°51'0 0.0
2015-Jan-10 01:27N 35°34' E 139°51'0 0.0
2015-Jan-10 00:30N 35°34' E 139°51'0 0.0
2015-Jan-09 23:24N 35°34' E 139°51'0 0.0
2015-Jan-09 21:30N 35°34' E 139°51'0 0.0
2015-Jan-09 20:27N 35°34' E 139°51'0 0.0
2015-Jan-09 19:30N 35°34' E 139°51'0 0.0
2015-Jan-09 18:30N 35°34' E 139°51'0 0.0
2015-Jan-09 17:33N 35°34' E 139°51'0 0.0
2015-Jan-09 16:30N 35°34' E 139°51'0 0.0
2015-Jan-09 15:27N 35°34' E 139°51'0 0.0
2015-Jan-09 14:27N 35°34' E 139°51'0 0.0
2015-Jan-09 13:30N 35°34' E 139°51'0 0.0
2015-Jan-09 12:30N 35°34' E 139°51'0 0.0
2015-Jan-09 11:30N 35°34' E 139°51'0 0.0
2015-Jan-09 10:30N 35°34' E 139°51'0 0.0
2015-Jan-09 09:15N 35°34' E 139°51'0 0.1
2015-Jan-09 08:33N 35°34' E 139°51'0 0.0
2015-Jan-09 06:12N 35°34' E 139°51'0 0.0
2015-Jan-09 05:16N 35°34' E 139°51'5 7.5
2015-Jan-09 04:33N 35°29' E 139°51'8 7.7
2015-Jan-09 03:33N 35°23' E 139°46'6 5.6
2015-Jan-09 02:33N 35°17' E 139°45'6 6.1
2015-Jan-09 01:33N 35°12' E 139°47'8 7.7
2015-Jan-09 00:33N 35°04' E 139°44'  

Dump ship's entire track history